»·PEaware :: N701GT KCRQ-KSJC

N701GT :: KCRQ-KSJC

FLIGHT INFORMATION

Flight Status: Arrived
Operator: Privately registered:
United States
More flights under this callsign
Pilot: Anonymous 17564 (17564)
Aircraft: ECLIPSE 500
(EA50)
More flights by this aircraft type
Origin: KCRQ McClellan-Palomar
United States
Destination: KSJC Mineta San Jose Intl
United States
More flights between these airports :: More routes between these airports
Route: PADRZ2 IKAYE TROXX SILCN4
File this flight plan on PilotEdge
Remarks:
Altitude:
(Current/Filed)
32,000ft
Speed:
(Current/Filed)
350kts
Departed: 30-Jul-18 07:20 PM
Arrived: 30-Jul-18 08:34 PM
Distance/Time
Traveled:
342nm/1:14
Distance/Time
To Go:
Arrived

Flight Plot

Page will automatically refresh every two minutes.


Map Options




Map Legend


Flown Route
Filed Route
Departure Airport
Arrival Airport
Navaid (VOR, NDB)
Fix

Horizontal Profiles

Position Reports

Time Latitude Longitude Heading Altitude Ground
Speed
30-Jul-18 19:07 33.127320 -117.274601 256 303ft 0kts
30-Jul-18 19:08 33.127320 -117.274601 256 303ft 0kts
30-Jul-18 19:09 33.127320 -117.274601 256 303ft 0kts
30-Jul-18 19:10 33.127320 -117.274601 256 303ft 0kts
30-Jul-18 19:11 33.127320 -117.274601 256 303ft 0kts
30-Jul-18 19:12 33.127320 -117.274601 256 303ft 0kts
30-Jul-18 19:13 33.127320 -117.274601 256 303ft 0kts
30-Jul-18 19:14 33.127320 -117.274601 256 303ft 0kts
30-Jul-18 19:15 33.127320 -117.274601 256 303ft 0kts
30-Jul-18 19:16 33.127320 -117.274601 256 303ft 0kts
30-Jul-18 19:17 33.127703 -117.275060 348 303ft 0kts
30-Jul-18 19:18 33.128287 -117.274713 80 303ft 11kts
30-Jul-18 19:19 33.128622 -117.272753 42 303ft 0kts
30-Jul-18 19:20 33.128622 -117.272753 42 303ft 0kts
30-Jul-18 19:21 33.129146 -117.274773 260 303ft 45kts
30-Jul-18 19:22 33.122676 -117.309262 256 924ft 149kts
30-Jul-18 19:23 33.112358 -117.359023 256 2917ft 170kts
30-Jul-18 19:24 33.100115 -117.419740 256 3001ft 203kts
30-Jul-18 19:25 33.088136 -117.480117 256 4144ft 169kts
30-Jul-18 19:26 33.078193 -117.533847 256 5686ft 170kts
30-Jul-18 19:27 33.068753 -117.590185 256 7438ft 177kts
30-Jul-18 19:28 33.059532 -117.648775 256 9044ft 185kts
30-Jul-18 19:29 33.064293 -117.708006 301 10532ft 198kts
30-Jul-18 19:30 33.094047 -117.764090 307 11971ft 204kts
30-Jul-18 19:31 33.137328 -117.806644 321 13320ft 210kts
30-Jul-18 19:32 33.182141 -117.850836 320 15158ft 211kts
30-Jul-18 19:33 33.225000 -117.899587 314 16764ft 217kts
30-Jul-18 19:34 33.268220 -117.950767 314 18263ft 222kts
30-Jul-18 19:35 33.312488 -118.003481 313 19670ft 228kts
30-Jul-18 19:36 33.357645 -118.057415 313 20989ft 233kts
30-Jul-18 19:37 33.403794 -118.112628 312 22234ft 237kts
30-Jul-18 19:38 33.450541 -118.168681 312 23398ft 241kts
30-Jul-18 19:39 33.497708 -118.225345 311 24489ft 245kts
30-Jul-18 19:40 33.546011 -118.283479 311 25531ft 248kts
30-Jul-18 19:41 33.595027 -118.342566 311 26517ft 251kts
30-Jul-18 19:42 33.643380 -118.400958 310 27420ft 254kts
30-Jul-18 19:43 33.693475 -118.461562 310 28292ft 257kts
30-Jul-18 19:44 33.743891 -118.522662 310 29111ft 260kts
30-Jul-18 19:45 33.794856 -118.584537 310 29886ft 262kts
30-Jul-18 19:46 33.845586 -118.646253 309 30606ft 264kts
30-Jul-18 19:47 33.896337 -118.708079 309 31295ft 266kts
30-Jul-18 19:48 33.948251 -118.771444 309 31947ft 268kts
30-Jul-18 19:49 34.002878 -118.838321 309 31997ft 296kts
30-Jul-18 19:50 34.063765 -118.912955 309 31997ft 328kts
30-Jul-18 19:51 34.129142 -118.993244 310 31989ft 352kts
30-Jul-18 19:52 34.199663 -119.067466 316 31989ft 372kts
30-Jul-18 19:53 34.275031 -119.144414 316 31989ft 385kts
30-Jul-18 19:54 34.357663 -119.228705 316 31962ft 396kts
30-Jul-18 19:55 34.442398 -119.315351 316 31963ft 403kts
30-Jul-18 19:56 34.526438 -119.401526 316 31963ft 408kts
30-Jul-18 19:57 34.613069 -119.490607 316 31964ft 411kts
30-Jul-18 19:58 34.700499 -119.580768 316 31965ft 414kts
30-Jul-18 19:59 34.786622 -119.669836 316 31969ft 415kts
30-Jul-18 20:00 34.874480 -119.760961 316 31982ft 416kts
30-Jul-18 20:01 34.962112 -119.852045 315 31985ft 413kts
30-Jul-18 20:02 35.048515 -119.942175 314 31986ft 407kts
30-Jul-18 20:03 35.134280 -120.031967 314 31993ft 407kts
30-Jul-18 20:04 35.219381 -120.121270 314 32005ft 406kts
30-Jul-18 20:05 35.305113 -120.211480 314 31997ft 407kts
30-Jul-18 20:06 35.390178 -120.301252 314 31983ft 407kts
30-Jul-18 20:07 35.475875 -120.391937 314 31959ft 407kts
30-Jul-18 20:08 35.561418 -120.482745 314 31944ft 408kts
30-Jul-18 20:09 35.646571 -120.573417 315 31954ft 408kts
30-Jul-18 20:10 35.731791 -120.664387 314 31956ft 408kts
30-Jul-18 20:11 35.817418 -120.756079 314 31957ft 408kts
30-Jul-18 20:12 35.902843 -120.847869 314 30438ft 400kts
30-Jul-18 20:13 35.985493 -120.936936 315 28191ft 390kts
30-Jul-18 20:14 36.069179 -121.019260 320 26114ft 382kts
30-Jul-18 20:15 36.149599 -121.095934 322 24062ft 367kts
30-Jul-18 20:16 36.223883 -121.166487 321 22070ft 334kts
30-Jul-18 20:17 36.292783 -121.232486 321 19963ft 312kts
30-Jul-18 20:18 36.359570 -121.296587 322 17866ft 301kts
30-Jul-18 20:19 36.424762 -121.359396 322 15762ft 294kts
30-Jul-18 20:20 36.487867 -121.420283 323 13679ft 288kts
30-Jul-18 20:21 36.560588 -121.455969 341 11580ft 280kts
30-Jul-18 20:22 36.633481 -121.487373 341 11010ft 276kts
30-Jul-18 20:23 36.706315 -121.518366 341 11002ft 278kts
30-Jul-18 20:24 36.778493 -121.549051 341 10996ft 279kts
30-Jul-18 20:25 36.851618 -121.580121 341 10998ft 279kts
30-Jul-18 20:26 36.925065 -121.611384 341 11004ft 279kts
30-Jul-18 20:27 37.000113 -121.643186 341 9716ft 300kts
30-Jul-18 20:28 37.072809 -121.674243 336 6934ft 269kts
30-Jul-18 20:29 37.131384 -121.726031 323 5018ft 246kts
30-Jul-18 20:30 37.188820 -121.776271 328 4926ft 264kts
30-Jul-18 20:31 37.259844 -121.821328 324 2976ft 264kts
30-Jul-18 20:32 37.305673 -121.868022 320 1233ft 202kts
30-Jul-18 20:33 37.337601 -121.902499 320 488ft 133kts
30-Jul-18 20:34 37.361742 -121.928900 319 46ft 85kts
30-Jul-18 20:35 37.366511 -121.935488 226 46ft 0kts
30-Jul-18 20:36 37.364460 -121.938350 219 46ft 14kts
30-Jul-18 20:37 37.364281 -121.938344 101 46ft 0kts
30-Jul-18 20:38 37.364281 -121.938344 101 46ft 0kts
30-Jul-18 20:39 37.364281 -121.938344 101 46ft 0kts
30-Jul-18 20:40 37.364281 -121.938344 101 46ft 0kts
30-Jul-18 20:41 37.364281 -121.938344 101 46ft 0kts
30-Jul-18 20:42 37.364281 -121.938344 101 46ft 0kts
30-Jul-18 20:43 37.364281 -121.938344 101 46ft 0kts
30-Jul-18 20:44 37.364281 -121.938344 101 46ft 0kts
30-Jul-18 20:45 37.364281 -121.938344 101 46ft 0kts
30-Jul-18 20:46 37.364281 -121.938344 101 46ft 0kts
30-Jul-18 20:47 37.364281 -121.938344 101 46ft 0kts
30-Jul-18 20:48 37.364281 -121.938344 101 46ft 0kts

Navigation Log

Ident Type
Flight plan parsing failed, navigation log unavailable